createdAt,value
2024-03-04T00:00:56.635Z,5.58
2024-03-04T00:03:25.192Z,5.60
2024-03-04T00:05:53.249Z,5.64
2024-03-04T00:08:21.264Z,5.59
2024-03-04T00:10:49.421Z,5.65
2024-03-04T00:13:18.486Z,5.66
2024-03-04T00:15:46.581Z,5.63
2024-03-04T00:18:16.122Z,5.59
2024-03-04T00:20:44.155Z,5.57
2024-03-04T00:23:12.183Z,5.62
2024-03-04T00:25:40.326Z,5.63
2024-03-04T00:28:09.745Z,5.75
2024-03-04T00:30:37.921Z,5.77
2024-03-04T00:33:06.381Z,5.74
2024-03-04T00:35:35.742Z,5.79
2024-03-04T00:38:04.368Z,5.76
2024-03-04T00:40:32.429Z,5.68
2024-03-04T00:43:00.545Z,5.71
2024-03-04T00:45:28.883Z,5.73
2024-03-04T00:47:56.892Z,5.74
2024-03-04T00:50:25.021Z,5.75
2024-03-04T00:52:56.690Z,5.76
2024-03-04T00:55:24.888Z,5.77
2024-03-04T00:57:53.380Z,5.89
2024-03-04T01:00:21.506Z,6.04
2024-03-04T01:02:49.489Z,6.08
2024-03-04T01:05:17.596Z,6.15
2024-03-04T01:07:45.652Z,6.14
2024-03-04T01:10:15.313Z,5.98
2024-03-04T01:12:43.820Z,5.72
2024-03-04T01:15:11.815Z,5.60
2024-03-04T01:17:40.201Z,5.61
2024-03-04T01:20:14.582Z,5.50
2024-03-04T01:22:42.906Z,5.54
2024-03-04T01:25:11.448Z,5.58
2024-03-04T01:27:40.921Z,5.53
2024-03-04T01:30:11.608Z,5.53
2024-03-04T01:32:39.837Z,5.49
2024-03-04T01:35:09.049Z,5.36
2024-03-04T01:37:37.279Z,5.42
2024-03-04T01:40:06.374Z,5.41
2024-03-04T01:42:34.375Z,5.34
2024-03-04T01:45:04.206Z,5.41
2024-03-04T01:47:33.099Z,5.55
2024-03-04T01:50:01.241Z,5.66
2024-03-04T01:52:29.678Z,5.77
2024-03-04T01:54:58.720Z,5.81
2024-03-04T01:57:26.825Z,5.83
2024-03-04T01:59:54.894Z,5.82
2024-03-04T02:02:24.516Z,5.79
2024-03-04T02:04:53.183Z,5.76
2024-03-04T02:07:21.368Z,5.74
2024-03-04T02:09:50.923Z,5.75
2024-03-04T02:12:19.265Z,5.77
2024-03-04T02:14:47.434Z,5.71
2024-03-04T02:17:16.018Z,5.60
2024-03-04T02:19:45.667Z,5.70
2024-03-04T02:22:16.148Z,5.78
2024-03-04T02:24:45.605Z,5.74
2024-03-04T02:27:13.596Z,5.78
2024-03-04T02:29:41.625Z,5.87
2024-03-04T02:32:10.960Z,5.89
2024-03-04T02:34:40.010Z,5.72
2024-03-04T02:37:08.045Z,5.78
2024-03-04T02:39:37.466Z,5.87
2024-03-04T02:42:08.125Z,5.78
2024-03-04T02:44:36.828Z,5.60
2024-03-04T02:47:05.024Z,5.58
2024-03-04T02:49:35.803Z,5.38
2024-03-04T02:52:04.582Z,5.39
2024-03-04T02:54:32.723Z,5.29
2024-03-04T02:57:00.749Z,5.24
2024-03-04T02:59:30.120Z,5.33
2024-03-04T03:01:58.176Z,5.38
2024-03-04T03:04:27.290Z,5.39
2024-03-04T03:06:55.394Z,5.57
2024-03-04T03:09:23.463Z,5.72
2024-03-04T03:11:51.530Z,5.88
2024-03-04T03:14:19.660Z,5.96
2024-03-04T03:16:50.697Z,5.99
2024-03-04T03:19:23.273Z,6.09
2024-03-04T03:21:52.874Z,6.10
2024-03-04T03:24:21.003Z,6.09
2024-03-04T03:26:49.102Z,6.06
2024-03-04T03:29:17.238Z,5.84
2024-03-04T03:31:45.797Z,5.50
2024-03-04T03:34:15.201Z,5.38
2024-03-04T03:36:43.616Z,5.30
2024-03-04T03:39:13.474Z,5.25
2024-03-04T03:41:41.764Z,5.03
2024-03-04T03:44:09.879Z,5.04
2024-03-04T03:46:37.947Z,4.99
2024-03-04T03:49:05.999Z,5.18
2024-03-04T03:51:35.426Z,5.29
2024-03-04T03:54:03.403Z,5.40
2024-03-04T03:56:31.432Z,5.58
2024-03-04T03:58:59.456Z,5.62
2024-03-04T04:01:27.601Z,5.67
2024-03-04T04:03:55.772Z,5.78
2024-03-04T04:06:23.829Z,5.90
2024-03-04T04:08:53.150Z,5.95
2024-03-04T04:11:21.553Z,5.99
2024-03-04T04:13:49.602Z,5.98
2024-03-04T04:16:17.590Z,6.01
2024-03-04T04:18:45.680Z,6.05
2024-03-04T04:21:13.777Z,6.07
2024-03-04T04:23:41.980Z,6.06
2024-03-04T04:26:11.546Z,6.10
2024-03-04T04:28:42.023Z,6.10
2024-03-04T04:31:20.580Z,6.07
2024-03-04T04:33:48.888Z,6.09
2024-03-04T04:36:17.758Z,6.11
2024-03-04T04:38:45.942Z,6.07
2024-03-04T04:41:15.545Z,6.04
2024-03-04T04:43:43.687Z,6.08
2024-03-04T04:46:11.788Z,6.11
2024-03-04T04:48:40.009Z,6.15
2024-03-04T04:51:08.152Z,6.17
2024-03-04T04:53:36.168Z,6.07
2024-03-04T04:56:04.546Z,5.87
2024-03-04T04:58:35.694Z,5.69
2024-03-04T05:01:04.149Z,5.62
2024-03-04T05:03:46.973Z,5.76
2024-03-04T05:06:21.536Z,5.84
2024-03-04T05:08:49.606Z,5.93
2024-03-04T05:11:17.860Z,5.91
2024-03-04T05:13:49.562Z,5.90
2024-03-04T05:16:17.695Z,5.89
2024-03-04T05:18:45.984Z,5.91
2024-03-04T05:21:14.327Z,5.95
2024-03-04T05:23:42.341Z,6.02
2024-03-04T05:26:10.389Z,5.99
2024-03-04T05:28:38.464Z,6.04
2024-03-04T05:31:08.032Z,6.07
2024-03-04T05:33:37.574Z,6.00
2024-03-04T05:36:09.502Z,5.93
2024-03-04T05:38:37.715Z,6.05
2024-03-04T05:41:06.047Z,6.09
2024-03-04T05:43:34.209Z,6.15
2024-03-04T05:46:02.500Z,6.15
2024-03-04T05:48:33.418Z,6.17
2024-03-04T05:51:04.497Z,6.15
2024-03-04T05:53:32.677Z,6.06
2024-03-04T05:56:00.691Z,6.04
2024-03-04T05:58:28.742Z,5.97
2024-03-04T06:00:58.265Z,5.89
2024-03-04T06:03:26.450Z,5.89
2024-03-04T06:05:55.955Z,5.89
2024-03-04T06:08:23.973Z,5.90
2024-03-04T06:10:52.088Z,5.92
2024-03-04T06:13:20.184Z,5.98
2024-03-04T06:15:48.195Z,6.03
2024-03-04T06:18:16.322Z,6.01
2024-03-04T06:20:45.531Z,6.02
2024-03-04T06:23:14.978Z,6.06
2024-03-04T06:25:43.555Z,6.11
2024-03-04T06:28:11.611Z,6.14
2024-03-04T06:30:39.915Z,6.15
2024-03-04T06:33:08.360Z,6.17
2024-03-04T06:35:36.873Z,6.13
2024-03-04T06:38:06.142Z,6.09
2024-03-04T06:40:35.539Z,6.05
2024-03-04T06:43:03.709Z,6.05
2024-03-04T06:45:31.700Z,6.05
2024-03-04T06:48:03.276Z,6.05
2024-03-04T06:50:31.891Z,5.95
2024-03-04T06:53:00.986Z,6.01
2024-03-04T06:55:29.067Z,6.04
2024-03-04T06:57:58.588Z,6.04
2024-03-04T07:00:26.724Z,6.04
2024-03-04T07:02:54.733Z,6.11
2024-03-04T07:05:22.809Z,6.17
2024-03-04T07:07:50.867Z,6.17
2024-03-04T07:10:19.082Z,6.21
2024-03-04T07:12:47.590Z,6.27
2024-03-04T07:15:17.249Z,6.32
2024-03-04T07:17:45.479Z,6.37
2024-03-04T07:20:13.933Z,6.40
2024-03-04T07:22:42.007Z,6.39
2024-03-04T07:25:10.907Z,6.42
2024-03-04T07:27:39.064Z,6.50
2024-03-04T07:30:09.704Z,6.48
2024-03-04T07:32:39.302Z,6.47
2024-03-04T07:35:08.093Z,6.48
2024-03-04T07:37:36.231Z,6.48
2024-03-04T07:40:05.263Z,6.46
2024-03-04T07:42:33.449Z,6.45
2024-03-04T07:45:01.521Z,6.34
2024-03-04T07:47:29.661Z,6.29
2024-03-04T07:49:59.632Z,6.34
2024-03-04T07:52:27.742Z,6.42
2024-03-04T07:54:55.741Z,6.43
2024-03-04T07:57:24.965Z,6.49
2024-03-04T07:59:54.399Z,6.50
2024-03-04T08:02:22.457Z,6.55
2024-03-04T08:04:50.586Z,6.56
2024-03-04T08:07:20.007Z,6.56
2024-03-04T08:09:48.122Z,6.52
2024-03-04T08:12:16.232Z,6.54
2024-03-04T08:14:44.430Z,6.63
2024-03-04T08:17:12.489Z,6.65
2024-03-04T08:19:40.557Z,6.67
2024-03-04T08:22:08.691Z,6.66
2024-03-04T08:24:38.115Z,6.68
2024-03-04T08:27:06.413Z,6.65
2024-03-04T08:29:35.339Z,6.62
2024-03-04T08:32:05.500Z,6.57
2024-03-04T08:34:34.172Z,6.54
2024-03-04T08:37:02.816Z,6.65
2024-03-04T08:39:31.061Z,6.72
2024-03-04T08:42:00.970Z,6.65
2024-03-04T08:44:31.583Z,6.60
2024-03-04T08:46:59.774Z,6.60
2024-03-04T08:49:27.848Z,6.64
2024-03-04T08:51:57.461Z,6.64
2024-03-04T08:54:27.192Z,6.52
2024-03-04T08:56:55.302Z,6.33
2024-03-04T08:59:24.671Z,6.09
2024-03-04T09:01:53.805Z,6.01
2024-03-04T09:04:22.304Z,5.99
2024-03-04T09:06:50.589Z,6.02
2024-03-04T09:09:18.818Z,6.09
2024-03-04T09:11:46.947Z,6.06
2024-03-04T09:14:14.974Z,6.13
2024-03-04T09:16:44.417Z,6.21
2024-03-04T09:19:12.906Z,6.29
2024-03-04T09:21:41.172Z,6.47
2024-03-04T09:24:09.200Z,6.61
2024-03-04T09:26:37.685Z,6.69
2024-03-04T09:29:05.838Z,6.79
2024-03-04T09:31:34.862Z,6.88
2024-03-04T09:34:05.334Z,7.03
2024-03-04T09:36:33.652Z,7.05
2024-03-04T09:39:01.708Z,7.04
2024-03-04T09:41:32.124Z,7.04
2024-03-04T09:44:03.216Z,6.87
2024-03-04T09:46:33.274Z,6.86
2024-03-04T09:49:02.050Z,6.91
2024-03-04T09:51:33.755Z,7.01
2024-03-04T09:54:02.660Z,7.12
2024-03-04T09:56:30.731Z,7.18
2024-03-04T09:58:59.159Z,7.22
2024-03-04T10:01:27.714Z,7.27
2024-03-04T10:03:56.385Z,7.34
2024-03-04T10:06:24.408Z,7.55
2024-03-04T10:08:53.889Z,7.63
2024-03-04T10:11:21.897Z,7.65
2024-03-04T10:13:50.087Z,7.60
2024-03-04T10:16:18.177Z,7.53
2024-03-04T10:19:02.342Z,7.57
2024-03-04T10:21:31.600Z,7.60
2024-03-04T10:24:08.937Z,7.64
2024-03-04T10:26:42.855Z,7.64
2024-03-04T10:29:12.689Z,7.70
2024-03-04T10:31:50.600Z,7.72
2024-03-04T10:34:18.907Z,7.79
2024-03-04T10:36:48.765Z,7.80
2024-03-04T10:39:18.267Z,7.88
2024-03-04T10:41:49.079Z,7.90
2024-03-04T10:44:27.215Z,7.89
2024-03-04T10:46:59.542Z,7.95
2024-03-04T10:49:31.121Z,7.92
2024-03-04T10:52:08.708Z,8.00
2024-03-04T10:54:43.735Z,8.06
2024-03-04T10:57:27.544Z,8.07
2024-03-04T10:59:57.942Z,7.75
2024-03-04T11:02:37.815Z,7.71
2024-03-04T11:05:09.445Z,7.74
2024-03-04T11:07:42.979Z,7.79
2024-03-04T11:10:22.162Z,7.77
2024-03-04T11:13:00.889Z,7.62
2024-03-04T11:15:32.897Z,7.84
2024-03-04T11:18:06.198Z,8.08
2024-03-04T11:20:34.833Z,8.27
2024-03-04T11:23:04.558Z,8.37
2024-03-04T11:25:34.302Z,8.42
2024-03-04T11:28:02.599Z,8.51
2024-03-04T11:30:31.060Z,8.60
2024-03-04T11:33:19.172Z,8.70
2024-03-04T11:35:47.441Z,8.70
2024-03-04T11:38:15.531Z,8.76
2024-03-04T11:40:47.905Z,8.75
2024-03-04T11:43:43.043Z,8.85
2024-03-04T11:46:13.090Z,8.94
2024-03-04T11:48:42.526Z,9.06
2024-03-04T11:51:11.083Z,9.18
2024-03-04T11:53:40.106Z,9.28
2024-03-04T11:56:09.560Z,9.30
2024-03-04T11:58:38.881Z,9.24
2024-03-04T12:01:13.425Z,9.28
2024-03-04T12:03:54.537Z,9.17
2024-03-04T12:06:22.863Z,9.21
2024-03-04T12:09:08.107Z,9.24
2024-03-04T12:11:41.793Z,9.37
2024-03-04T12:14:10.001Z,9.52
2024-03-04T12:16:40.193Z,9.64
2024-03-04T12:19:08.514Z,9.74
2024-03-04T12:21:38.498Z,9.75
2024-03-04T12:24:08.471Z,9.82
2024-03-04T12:26:37.134Z,9.87
2024-03-04T12:29:08.241Z,10.01
2024-03-04T12:31:39.067Z,10.06
2024-03-04T12:34:09.228Z,10.05
2024-03-04T12:36:43.072Z,10.07
2024-03-04T12:39:15.416Z,9.97
2024-03-04T12:41:43.601Z,10.03
2024-03-04T12:44:12.986Z,10.07
2024-03-04T12:46:42.596Z,9.85
2024-03-04T12:49:11.335Z,9.58
2024-03-04T12:51:38.392Z,9.32
2024-03-04T12:54:06.523Z,9.19
2024-03-04T12:56:34.533Z,9.16
2024-03-04T12:59:02.919Z,9.15
2024-03-04T13:01:32.848Z,9.10
2024-03-04T13:04:04.965Z,8.94
2024-03-04T13:06:33.032Z,8.67
2024-03-04T13:09:00.965Z,8.63
2024-03-04T13:11:28.957Z,8.60
2024-03-04T13:13:56.897Z,8.78
2024-03-04T13:16:24.951Z,8.92
2024-03-04T13:18:55.153Z,9.04
2024-03-04T13:21:23.107Z,9.13
2024-03-04T13:23:51.218Z,9.21
2024-03-04T13:26:19.317Z,9.14
2024-03-04T13:28:47.341Z,9.28
2024-03-04T13:31:15.341Z,9.26
2024-03-04T13:33:43.385Z,9.30
2024-03-04T13:36:12.750Z,9.50
2024-03-04T13:38:40.681Z,9.71
2024-03-04T13:41:08.610Z,9.47
2024-03-04T13:43:36.633Z,9.64
2024-03-04T13:46:05.060Z,9.77
2024-03-04T13:48:33.095Z,10.01
2024-03-04T13:51:01.056Z,10.11
2024-03-04T13:53:30.403Z,10.16
2024-03-04T13:55:58.410Z,10.22
2024-03-04T13:58:26.359Z,10.28
2024-03-04T14:00:54.563Z,10.41
2024-03-04T14:03:22.861Z,10.54
2024-03-04T14:05:50.898Z,10.57
2024-03-04T14:08:19.180Z,10.60
2024-03-04T14:10:48.607Z,10.67
2024-03-04T14:13:16.684Z,10.63
2024-03-04T14:15:47.614Z,10.60
2024-03-04T14:18:15.824Z,10.75
2024-03-04T14:20:43.791Z,10.77
2024-03-04T14:23:11.762Z,10.86
2024-03-04T14:25:39.794Z,10.81
2024-03-04T14:28:09.418Z,10.80
2024-03-04T14:30:37.399Z,10.75
2024-03-04T14:33:05.899Z,10.73
2024-03-04T14:35:35.695Z,10.79
2024-03-04T14:38:04.730Z,10.82
2024-03-04T14:40:32.747Z,10.71
2024-03-04T14:43:00.947Z,10.57
2024-03-04T14:45:30.318Z,10.64
2024-03-04T14:47:58.275Z,10.55
2024-03-04T14:50:27.056Z,10.51
2024-03-04T14:52:55.106Z,10.60
2024-03-04T14:55:23.249Z,10.60
2024-03-04T14:57:51.174Z,10.49
2024-03-04T15:00:20.263Z,10.31
2024-03-04T15:02:49.661Z,10.14
2024-03-04T15:05:19.571Z,10.07
2024-03-04T15:07:47.646Z,9.90
2024-03-04T15:10:16.056Z,9.77
2024-03-04T15:12:45.222Z,9.67
2024-03-04T15:15:15.512Z,9.57
2024-03-04T15:17:43.881Z,9.60
2024-03-04T15:20:13.875Z,9.71
2024-03-04T15:22:43.690Z,9.74
2024-03-04T15:25:12.515Z,9.72
2024-03-04T15:27:40.751Z,9.74
2024-03-04T15:30:09.856Z,9.78
2024-03-04T15:32:38.237Z,9.85
2024-03-04T15:35:07.362Z,9.71
2024-03-04T15:37:37.492Z,9.53
2024-03-04T15:40:07.480Z,9.43
2024-03-04T15:42:36.026Z,9.45
2024-03-04T15:45:05.706Z,9.46
2024-03-04T15:47:33.645Z,9.46
2024-03-04T15:50:01.694Z,9.54
2024-03-04T15:52:29.681Z,9.39
2024-03-04T15:54:59.022Z,9.42
2024-03-04T15:57:27.068Z,9.47
2024-03-04T15:59:55.158Z,9.49
2024-03-04T16:02:23.128Z,9.51
2024-03-04T16:04:51.144Z,9.29
2024-03-04T16:07:19.235Z,9.12
2024-03-04T16:09:48.061Z,8.78
2024-03-04T16:12:17.394Z,8.82
2024-03-04T16:14:45.603Z,8.91
2024-03-04T16:17:13.582Z,8.74
2024-03-04T16:19:41.619Z,8.83
2024-03-04T16:22:09.684Z,8.79
2024-03-04T16:24:40.160Z,8.78
2024-03-04T16:27:08.459Z,8.78
2024-03-04T16:29:39.060Z,8.63
2024-03-04T16:32:08.863Z,8.62
2024-03-04T16:34:36.810Z,8.54
2024-03-04T16:37:05.180Z,8.47
2024-03-04T16:39:33.286Z,8.36
2024-03-04T16:42:01.320Z,8.45
2024-03-04T16:44:29.284Z,8.67
2024-03-04T16:46:58.630Z,8.69
2024-03-04T16:49:26.938Z,8.72
2024-03-04T16:51:54.898Z,8.65
2024-03-04T16:54:22.821Z,8.73
2024-03-04T16:56:50.827Z,8.78
2024-03-04T16:59:18.776Z,8.85
2024-03-04T17:01:49.684Z,8.70
2024-03-04T17:04:20.517Z,8.54
2024-03-04T17:06:48.489Z,8.48
2024-03-04T17:09:18.590Z,8.50
2024-03-04T17:11:46.584Z,8.59
2024-03-04T17:14:14.654Z,8.56
2024-03-04T17:16:44.218Z,8.58
2024-03-04T17:19:12.670Z,8.49
2024-03-04T17:21:46.466Z,8.43
2024-03-04T17:24:14.533Z,8.38
2024-03-04T17:26:43.655Z,8.43
2024-03-04T17:29:12.239Z,8.51
2024-03-04T17:31:40.517Z,8.45
2024-03-04T17:34:08.740Z,8.30
2024-03-04T17:36:41.021Z,8.43
2024-03-04T17:39:11.357Z,8.28
2024-03-04T17:41:39.379Z,8.26
2024-03-04T17:44:07.376Z,8.24
2024-03-04T17:46:36.756Z,8.22
2024-03-04T17:49:06.869Z,8.23
2024-03-04T17:51:40.712Z,8.20
2024-03-04T17:54:10.365Z,8.32
2024-03-04T17:56:38.390Z,8.24
2024-03-04T17:59:07.341Z,8.35
2024-03-04T18:01:35.647Z,8.33
2024-03-04T18:04:05.574Z,8.30
2024-03-04T18:06:34.923Z,8.22
2024-03-04T18:09:03.945Z,8.18
2024-03-04T18:11:34.479Z,8.06
2024-03-04T18:14:04.150Z,8.11
2024-03-04T18:16:33.740Z,8.25
2024-03-04T18:19:01.815Z,8.26
2024-03-04T18:21:30.093Z,8.01
2024-03-04T18:23:58.158Z,7.72
2024-03-04T18:26:26.635Z,7.79
2024-03-04T18:28:56.110Z,7.76
2024-03-04T18:31:24.327Z,7.79
2024-03-04T18:33:52.339Z,7.89
2024-03-04T18:36:20.491Z,7.91
2024-03-04T18:38:48.549Z,8.06
2024-03-04T18:41:16.743Z,8.08
2024-03-04T18:43:45.143Z,7.85
2024-03-04T18:46:15.842Z,7.89
2024-03-04T18:48:44.428Z,8.03
2024-03-04T18:51:13.422Z,7.89
2024-03-04T18:53:41.787Z,7.99
2024-03-04T18:56:13.572Z,8.09
2024-03-04T18:58:42.170Z,8.15
2024-03-04T19:01:13.205Z,8.11
2024-03-04T19:03:42.791Z,8.17
2024-03-04T19:06:10.688Z,8.15
2024-03-04T19:08:38.613Z,8.14
2024-03-04T19:11:12.695Z,8.08
2024-03-04T19:13:44.104Z,8.08
2024-03-04T19:16:12.249Z,8.06
2024-03-04T19:18:40.429Z,8.01
2024-03-04T19:21:16.728Z,7.74
2024-03-04T19:23:44.695Z,7.52
2024-03-04T19:26:16.240Z,7.57
2024-03-04T19:28:44.557Z,7.74
2024-03-04T19:31:19.942Z,7.60
2024-03-04T19:33:50.805Z,7.41
2024-03-04T19:36:20.260Z,7.51
2024-03-04T19:38:48.216Z,7.59
2024-03-04T19:41:20.872Z,7.48
2024-03-04T19:43:49.064Z,7.64
2024-03-04T19:46:19.207Z,7.52
2024-03-04T19:48:48.289Z,7.45
2024-03-04T19:51:17.901Z,7.46
2024-03-04T19:53:47.831Z,7.55
2024-03-04T19:56:16.360Z,7.57
2024-03-04T19:58:46.595Z,7.45
2024-03-04T20:01:15.496Z,7.41
2024-03-04T20:03:44.692Z,7.44
2024-03-04T20:06:13.018Z,7.37
2024-03-04T20:08:42.407Z,7.31
2024-03-04T20:11:14.594Z,7.31
2024-03-04T20:13:43.926Z,7.48
2024-03-04T20:16:14.649Z,7.61
2024-03-04T20:18:42.856Z,7.71
2024-03-04T20:21:12.327Z,7.61
2024-03-04T20:23:42.013Z,7.65
2024-03-04T20:26:10.061Z,7.51
2024-03-04T20:28:40.402Z,7.33
2024-03-04T20:31:08.638Z,7.41
2024-03-04T20:33:36.663Z,7.41
2024-03-04T20:36:08.285Z,7.59
2024-03-04T20:38:36.295Z,7.67
2024-03-04T20:41:06.424Z,7.65
2024-03-04T20:43:34.679Z,7.61
2024-03-04T20:46:04.507Z,7.68
2024-03-04T20:48:32.452Z,7.52
2024-03-04T20:51:00.483Z,7.54
2024-03-04T20:53:28.454Z,7.39
2024-03-04T20:55:56.646Z,7.34
2024-03-04T20:58:24.717Z,7.28
2024-03-04T21:00:52.666Z,7.19
2024-03-04T21:03:22.798Z,7.24
2024-03-04T21:05:50.819Z,7.39
2024-03-04T21:08:18.733Z,7.41
2024-03-04T21:10:48.305Z,7.38
2024-03-04T21:13:16.411Z,7.40
2024-03-04T21:15:44.514Z,7.44
2024-03-04T21:18:12.522Z,7.38
2024-03-04T21:20:41.911Z,7.47
2024-03-04T21:23:10.346Z,7.47
2024-03-04T21:25:38.611Z,7.46
2024-03-04T21:28:07.499Z,7.49
2024-03-04T21:30:35.479Z,7.43
2024-03-04T21:33:03.508Z,7.43
2024-03-04T21:35:31.605Z,7.47
2024-03-04T21:38:00.940Z,7.33
2024-03-04T21:40:29.159Z,7.37
2024-03-04T21:42:57.163Z,7.44
2024-03-04T21:45:25.316Z,7.40
2024-03-04T21:47:53.349Z,7.37
2024-03-04T21:50:21.387Z,7.40
2024-03-04T21:52:49.337Z,7.43
2024-03-04T21:55:18.834Z,7.33
2024-03-04T21:57:47.369Z,7.29
2024-03-04T22:00:20.018Z,7.19
2024-03-04T22:02:48.283Z,7.26
2024-03-04T22:05:17.424Z,7.21
2024-03-04T22:07:45.708Z,7.25
2024-03-04T22:10:13.745Z,7.21
2024-03-04T22:12:43.380Z,7.11
2024-03-04T22:15:12.031Z,7.13
2024-03-04T22:17:40.093Z,7.18
2024-03-04T22:20:13.820Z,7.28
2024-03-04T22:22:42.348Z,7.41
2024-03-04T22:25:11.141Z,7.48
2024-03-04T22:27:39.165Z,7.43
2024-03-04T22:30:10.210Z,7.42
2024-03-04T22:32:39.623Z,7.49
2024-03-04T22:35:08.810Z,7.51
2024-03-04T22:37:37.882Z,7.51
2024-03-04T22:40:09.537Z,7.63
2024-03-04T22:42:37.753Z,7.71
2024-03-04T22:45:06.116Z,7.78
2024-03-04T22:47:35.555Z,7.76
2024-03-04T22:50:04.678Z,7.70
2024-03-04T22:52:32.874Z,7.71
2024-03-04T22:55:00.926Z,7.51
2024-03-04T22:57:28.995Z,7.63
2024-03-04T22:59:56.900Z,7.34
2024-03-04T23:02:24.995Z,7.41
2024-03-04T23:04:54.617Z,7.41
2024-03-04T23:07:22.946Z,7.34
2024-03-04T23:09:50.970Z,7.30
2024-03-04T23:12:18.914Z,7.22
2024-03-04T23:14:46.852Z,6.90
2024-03-04T23:17:14.828Z,7.02
2024-03-04T23:19:42.983Z,6.99
2024-03-04T23:22:12.523Z,6.86
2024-03-04T23:24:40.473Z,6.92
2024-03-04T23:27:08.411Z,7.01
2024-03-04T23:29:36.400Z,6.98
2024-03-04T23:32:04.516Z,6.92
2024-03-04T23:34:32.592Z,6.91
2024-03-04T23:37:01.736Z,6.87
2024-03-04T23:39:31.146Z,6.85
2024-03-04T23:41:59.994Z,6.89
2024-03-04T23:44:28.205Z,6.83
2024-03-04T23:46:56.364Z,7.00
2024-03-04T23:49:24.447Z,7.02
2024-03-04T23:51:53.968Z,7.14
2024-03-04T23:54:22.479Z,7.19
2024-03-04T23:56:51.779Z,7.15
2024-03-04T23:59:19.746Z,7.17
